sensor_id;sensor_type;location;lat;lon;timestamp;P1;durP1;ratioP1;P2;durP2;ratioP2
14139;SDS011;7150;53.514;9.988;2022-12-07T00:01:06;18.67;;;9.90;;
14139;SDS011;7150;53.514;9.988;2022-12-07T00:03:39;15.57;;;8.87;;
14139;SDS011;7150;53.514;9.988;2022-12-07T00:06:06;15.73;;;9.57;;
14139;SDS011;7150;53.514;9.988;2022-12-07T00:08:34;17.50;;;9.80;;
14139;SDS011;7150;53.514;9.988;2022-12-07T00:11:07;15.60;;;9.07;;
14139;SDS011;7150;53.514;9.988;2022-12-07T00:13:34;18.93;;;10.70;;
14139;SDS011;7150;53.514;9.988;2022-12-07T00:16:05;16.93;;;10.43;;
14139;SDS011;7150;53.514;9.988;2022-12-07T00:18:33;19.40;;;9.87;;
14139;SDS011;7150;53.514;9.988;2022-12-07T00:21:03;18.13;;;10.07;;
14139;SDS011;7150;53.514;9.988;2022-12-07T00:23:30;16.87;;;9.53;;
14139;SDS011;7150;53.514;9.988;2022-12-07T00:25:55;14.27;;;8.90;;
14139;SDS011;7150;53.514;9.988;2022-12-07T00:28:21;18.07;;;9.83;;
14139;SDS011;7150;53.514;9.988;2022-12-07T00:30:46;17.77;;;9.63;;
14139;SDS011;7150;53.514;9.988;2022-12-07T00:33:12;16.57;;;10.03;;
14139;SDS011;7150;53.514;9.988;2022-12-07T00:35:37;17.83;;;10.27;;
14139;SDS011;7150;53.514;9.988;2022-12-07T00:38:03;15.73;;;8.97;;
14139;SDS011;7150;53.514;9.988;2022-12-07T00:40:28;16.03;;;9.30;;
14139;SDS011;7150;53.514;9.988;2022-12-07T00:42:54;16.87;;;9.27;;
14139;SDS011;7150;53.514;9.988;2022-12-07T00:45:19;15.57;;;9.07;;
14139;SDS011;7150;53.514;9.988;2022-12-07T00:47:45;17.10;;;9.33;;
14139;SDS011;7150;53.514;9.988;2022-12-07T00:50:10;14.97;;;9.30;;
14139;SDS011;7150;53.514;9.988;2022-12-07T00:52:36;17.90;;;9.90;;
14139;SDS011;7150;53.514;9.988;2022-12-07T00:55:01;14.00;;;8.77;;
14139;SDS011;7150;53.514;9.988;2022-12-07T00:57:27;12.67;;;7.70;;
14139;SDS011;7150;53.514;9.988;2022-12-07T00:59:52;17.10;;;8.80;;
14139;SDS011;7150;53.514;9.988;2022-12-07T01:02:22;16.00;;;8.63;;
14139;SDS011;7150;53.514;9.988;2022-12-07T01:04:48;15.27;;;8.30;;
14139;SDS011;7150;53.514;9.988;2022-12-07T01:07:13;12.23;;;7.33;;
14139;SDS011;7150;53.514;9.988;2022-12-07T01:09:39;14.23;;;8.13;;
14139;SDS011;7150;53.514;9.988;2022-12-07T01:12:04;13.13;;;8.07;;
14139;SDS011;7150;53.514;9.988;2022-12-07T01:14:30;12.53;;;7.17;;
14139;SDS011;7150;53.514;9.988;2022-12-07T01:16:55;12.50;;;7.57;;
14139;SDS011;7150;53.514;9.988;2022-12-07T01:19:21;14.77;;;7.47;;
14139;SDS011;7150;53.514;9.988;2022-12-07T01:21:46;11.47;;;6.07;;
14139;SDS011;7150;53.514;9.988;2022-12-07T01:24:12;12.10;;;7.30;;
14139;SDS011;7150;53.514;9.988;2022-12-07T01:26:37;11.23;;;7.20;;
14139;SDS011;7150;53.514;9.988;2022-12-07T01:29:03;13.00;;;7.50;;
14139;SDS011;7150;53.514;9.988;2022-12-07T01:31:28;10.63;;;6.50;;
14139;SDS011;7150;53.514;9.988;2022-12-07T01:33:56;15.33;;;7.03;;
14139;SDS011;7150;53.514;9.988;2022-12-07T01:38:54;12.40;;;6.67;;
14139;SDS011;7150;53.514;9.988;2022-12-07T01:41:22;13.43;;;6.87;;
14139;SDS011;7150;53.514;9.988;2022-12-07T01:46:39;17.53;;;7.87;;
14139;SDS011;7150;53.514;9.988;2022-12-07T01:49:07;14.47;;;7.73;;
14139;SDS011;7150;53.514;9.988;2022-12-07T01:51:35;14.67;;;7.77;;
14139;SDS011;7150;53.514;9.988;2022-12-07T01:54:04;12.63;;;6.83;;
14139;SDS011;7150;53.514;9.988;2022-12-07T01:56:30;11.53;;;6.80;;
14139;SDS011;7150;53.514;9.988;2022-12-07T01:58:58;11.37;;;6.63;;
14139;SDS011;7150;53.514;9.988;2022-12-07T02:01:25;13.50;;;6.57;;
14139;SDS011;7150;53.514;9.988;2022-12-07T02:03:50;12.97;;;7.17;;
14139;SDS011;7150;53.514;9.988;2022-12-07T02:06:17;11.90;;;6.30;;
14139;SDS011;7150;53.514;9.988;2022-12-07T02:08:48;13.20;;;6.03;;
14139;SDS011;7150;53.514;9.988;2022-12-07T02:11:13;9.80;;;5.43;;
14139;SDS011;7150;53.514;9.988;2022-12-07T02:13:40;11.13;;;5.20;;
14139;SDS011;7150;53.514;9.988;2022-12-07T02:18:48;11.10;;;5.60;;
14139;SDS011;7150;53.514;9.988;2022-12-07T02:21:50;8.03;;;5.07;;
14139;SDS011;7150;53.514;9.988;2022-12-07T02:30:09;8.73;;;4.97;;
14139;SDS011;7150;53.514;9.988;2022-12-07T02:38:20;7.43;;;4.70;;
14139;SDS011;7150;53.514;9.988;2022-12-07T02:41:02;9.20;;;4.83;;
14139;SDS011;7150;53.514;9.988;2022-12-07T02:43:35;9.60;;;4.97;;
14139;SDS011;7150;53.514;9.988;2022-12-07T02:46:09;7.13;;;4.00;;
14139;SDS011;7150;53.514;9.988;2022-12-07T02:48:38;12.07;;;5.20;;
14139;SDS011;7150;53.514;9.988;2022-12-07T02:51:06;8.70;;;4.27;;
14139;SDS011;7150;53.514;9.988;2022-12-07T02:53:41;11.93;;;4.60;;
14139;SDS011;7150;53.514;9.988;2022-12-07T02:56:16;5.67;;;3.77;;
14139;SDS011;7150;53.514;9.988;2022-12-07T03:07:08;5.97;;;3.73;;
14139;SDS011;7150;53.514;9.988;2022-12-07T03:09:46;8.47;;;4.13;;
14139;SDS011;7150;53.514;9.988;2022-12-07T03:12:29;9.03;;;4.10;;
14139;SDS011;7150;53.514;9.988;2022-12-07T03:15:09;7.83;;;3.80;;
14139;SDS011;7150;53.514;9.988;2022-12-07T03:17:39;5.33;;;3.23;;
14139;SDS011;7150;53.514;9.988;2022-12-07T03:20:07;7.33;;;3.27;;
14139;SDS011;7150;53.514;9.988;2022-12-07T03:22:37;4.80;;;3.10;;
14139;SDS011;7150;53.514;9.988;2022-12-07T03:25:04;9.03;;;3.37;;
14139;SDS011;7150;53.514;9.988;2022-12-07T03:27:35;5.83;;;3.00;;
14139;SDS011;7150;53.514;9.988;2022-12-07T03:30:05;5.47;;;2.93;;
14139;SDS011;7150;53.514;9.988;2022-12-07T03:32:39;8.77;;;2.90;;
14139;SDS011;7150;53.514;9.988;2022-12-07T03:35:17;6.67;;;2.90;;
14139;SDS011;7150;53.514;9.988;2022-12-07T03:40:18;11.27;;;2.63;;
14139;SDS011;7150;53.514;9.988;2022-12-07T03:42:53;8.10;;;2.40;;
14139;SDS011;7150;53.514;9.988;2022-12-07T03:45:21;5.90;;;2.50;;
14139;SDS011;7150;53.514;9.988;2022-12-07T03:47:59;5.53;;;2.43;;
14139;SDS011;7150;53.514;9.988;2022-12-07T03:50:30;6.50;;;2.67;;
14139;SDS011;7150;53.514;9.988;2022-12-07T03:53:25;5.70;;;1.90;;
14139;SDS011;7150;53.514;9.988;2022-12-07T03:55:55;5.50;;;1.97;;
14139;SDS011;7150;53.514;9.988;2022-12-07T03:58:22;7.30;;;2.03;;
14139;SDS011;7150;53.514;9.988;2022-12-07T04:00:48;5.00;;;2.40;;
14139;SDS011;7150;53.514;9.988;2022-12-07T04:03:15;5.27;;;2.20;;
14139;SDS011;7150;53.514;9.988;2022-12-07T04:05:41;4.80;;;2.10;;
14139;SDS011;7150;53.514;9.988;2022-12-07T04:08:07;2.97;;;2.00;;
14139;SDS011;7150;53.514;9.988;2022-12-07T04:10:33;5.13;;;2.20;;
14139;SDS011;7150;53.514;9.988;2022-12-07T04:12:58;11.23;;;2.50;;
14139;SDS011;7150;53.514;9.988;2022-12-07T04:15:24;5.30;;;2.27;;
14139;SDS011;7150;53.514;9.988;2022-12-07T04:17:49;3.13;;;1.40;;
14139;SDS011;7150;53.514;9.988;2022-12-07T04:20:15;2.93;;;1.63;;
14139;SDS011;7150;53.514;9.988;2022-12-07T04:22:41;16.23;;;5.33;;
14139;SDS011;7150;53.514;9.988;2022-12-07T04:25:06;10.00;;;3.73;;
14139;SDS011;7150;53.514;9.988;2022-12-07T04:27:32;3.80;;;1.33;;
14139;SDS011;7150;53.514;9.988;2022-12-07T04:29:58;5.43;;;1.57;;
14139;SDS011;7150;53.514;9.988;2022-12-07T04:32:23;3.30;;;1.63;;
14139;SDS011;7150;53.514;9.988;2022-12-07T04:34:49;3.20;;;1.63;;
14139;SDS011;7150;53.514;9.988;2022-12-07T04:37:15;2.70;;;1.60;;
14139;SDS011;7150;53.514;9.988;2022-12-07T04:39:42;4.70;;;1.70;;
14139;SDS011;7150;53.514;9.988;2022-12-07T04:42:09;71.40;;;27.53;;
14139;SDS011;7150;53.514;9.988;2022-12-07T04:44:35;13.67;;;5.10;;
14139;SDS011;7150;53.514;9.988;2022-12-07T04:47:01;4.63;;;1.93;;
14139;SDS011;7150;53.514;9.988;2022-12-07T04:49:27;3.67;;;1.60;;
14139;SDS011;7150;53.514;9.988;2022-12-07T04:51:52;4.20;;;2.07;;
14139;SDS011;7150;53.514;9.988;2022-12-07T04:54:18;6.13;;;1.60;;
14139;SDS011;7150;53.514;9.988;2022-12-07T04:56:44;4.83;;;1.80;;
14139;SDS011;7150;53.514;9.988;2022-12-07T04:59:13;3.90;;;1.83;;
14139;SDS011;7150;53.514;9.988;2022-12-07T05:01:40;3.73;;;1.90;;
14139;SDS011;7150;53.514;9.988;2022-12-07T05:04:05;4.93;;;1.60;;
14139;SDS011;7150;53.514;9.988;2022-12-07T05:06:31;6.60;;;1.97;;
14139;SDS011;7150;53.514;9.988;2022-12-07T05:08:57;5.00;;;1.20;;
14139;SDS011;7150;53.514;9.988;2022-12-07T05:11:23;4.03;;;1.80;;
14139;SDS011;7150;53.514;9.988;2022-12-07T05:14:11;5.43;;;2.40;;
14139;SDS011;7150;53.514;9.988;2022-12-07T05:16:38;5.93;;;2.40;;
14139;SDS011;7150;53.514;9.988;2022-12-07T05:19:05;3.13;;;1.70;;
14139;SDS011;7150;53.514;9.988;2022-12-07T05:21:31;5.07;;;2.10;;
14139;SDS011;7150;53.514;9.988;2022-12-07T05:23:57;4.30;;;1.97;;
14139;SDS011;7150;53.514;9.988;2022-12-07T05:26:22;4.87;;;2.20;;
14139;SDS011;7150;53.514;9.988;2022-12-07T05:28:51;6.27;;;2.20;;
14139;SDS011;7150;53.514;9.988;2022-12-07T05:31:18;5.00;;;2.40;;
14139;SDS011;7150;53.514;9.988;2022-12-07T05:33:43;3.93;;;2.00;;
14139;SDS011;7150;53.514;9.988;2022-12-07T05:36:09;6.27;;;2.13;;
14139;SDS011;7150;53.514;9.988;2022-12-07T05:38:34;3.90;;;2.20;;
14139;SDS011;7150;53.514;9.988;2022-12-07T05:41:01;4.03;;;1.90;;
14139;SDS011;7150;53.514;9.988;2022-12-07T05:43:30;5.97;;;2.60;;
14139;SDS011;7150;53.514;9.988;2022-12-07T05:45:56;4.20;;;1.80;;
14139;SDS011;7150;53.514;9.988;2022-12-07T05:48:23;3.67;;;2.03;;
14139;SDS011;7150;53.514;9.988;2022-12-07T05:50:49;5.03;;;1.67;;
14139;SDS011;7150;53.514;9.988;2022-12-07T05:53:15;4.53;;;1.63;;
14139;SDS011;7150;53.514;9.988;2022-12-07T05:55:40;3.03;;;1.60;;
14139;SDS011;7150;53.514;9.988;2022-12-07T05:58:06;4.37;;;1.73;;
14139;SDS011;7150;53.514;9.988;2022-12-07T06:00:50;5.97;;;1.80;;
14139;SDS011;7150;53.514;9.988;2022-12-07T06:03:15;4.63;;;1.90;;
14139;SDS011;7150;53.514;9.988;2022-12-07T06:05:41;3.93;;;1.90;;
14139;SDS011;7150;53.514;9.988;2022-12-07T06:08:07;5.17;;;1.50;;
14139;SDS011;7150;53.514;9.988;2022-12-07T06:10:32;4.73;;;2.10;;
14139;SDS011;7150;53.514;9.988;2022-12-07T06:12:58;4.80;;;2.00;;
14139;SDS011;7150;53.514;9.988;2022-12-07T06:15:24;4.50;;;1.57;;
14139;SDS011;7150;53.514;9.988;2022-12-07T06:17:49;4.03;;;1.60;;
14139;SDS011;7150;53.514;9.988;2022-12-07T06:20:14;4.93;;;1.70;;
14139;SDS011;7150;53.514;9.988;2022-12-07T06:22:40;5.07;;;2.10;;
14139;SDS011;7150;53.514;9.988;2022-12-07T06:25:05;7.23;;;2.60;;
14139;SDS011;7150;53.514;9.988;2022-12-07T06:27:32;8.73;;;2.53;;
14139;SDS011;7150;53.514;9.988;2022-12-07T06:29:58;4.00;;;2.10;;
14139;SDS011;7150;53.514;9.988;2022-12-07T06:32:24;4.67;;;2.60;;
14139;SDS011;7150;53.514;9.988;2022-12-07T06:34:50;7.87;;;2.30;;
14139;SDS011;7150;53.514;9.988;2022-12-07T06:37:15;5.90;;;1.77;;
14139;SDS011;7150;53.514;9.988;2022-12-07T06:39:41;2.10;;;1.40;;
14139;SDS011;7150;53.514;9.988;2022-12-07T06:42:06;3.67;;;1.67;;
14139;SDS011;7150;53.514;9.988;2022-12-07T06:44:32;4.43;;;1.80;;
14139;SDS011;7150;53.514;9.988;2022-12-07T06:46:57;6.00;;;1.53;;
14139;SDS011;7150;53.514;9.988;2022-12-07T06:49:23;4.33;;;1.70;;
14139;SDS011;7150;53.514;9.988;2022-12-07T06:51:48;6.17;;;1.80;;
14139;SDS011;7150;53.514;9.988;2022-12-07T06:54:14;3.30;;;1.93;;
14139;SDS011;7150;53.514;9.988;2022-12-07T06:56:40;2.93;;;1.87;;
14139;SDS011;7150;53.514;9.988;2022-12-07T06:59:06;2.40;;;1.27;;
14139;SDS011;7150;53.514;9.988;2022-12-07T07:01:33;5.77;;;1.97;;
14139;SDS011;7150;53.514;9.988;2022-12-07T07:03:59;3.57;;;1.27;;
14139;SDS011;7150;53.514;9.988;2022-12-07T07:06:25;7.10;;;1.87;;
14139;SDS011;7150;53.514;9.988;2022-12-07T07:08:51;3.40;;;1.47;;
14139;SDS011;7150;53.514;9.988;2022-12-07T07:11:17;3.67;;;1.70;;
14139;SDS011;7150;53.514;9.988;2022-12-07T07:13:42;3.87;;;1.67;;
14139;SDS011;7150;53.514;9.988;2022-12-07T07:16:09;5.40;;;1.60;;
14139;SDS011;7150;53.514;9.988;2022-12-07T07:18:35;2.43;;;1.40;;
14139;SDS011;7150;53.514;9.988;2022-12-07T07:21:01;7.33;;;1.50;;
14139;SDS011;7150;53.514;9.988;2022-12-07T07:23:26;4.03;;;1.73;;
14139;SDS011;7150;53.514;9.988;2022-12-07T07:25:52;3.63;;;2.10;;
14139;SDS011;7150;53.514;9.988;2022-12-07T07:28:18;3.93;;;1.53;;
14139;SDS011;7150;53.514;9.988;2022-12-07T07:30:43;5.17;;;1.50;;
14139;SDS011;7150;53.514;9.988;2022-12-07T07:33:09;5.80;;;1.93;;
14139;SDS011;7150;53.514;9.988;2022-12-07T07:35:35;7.67;;;1.87;;
14139;SDS011;7150;53.514;9.988;2022-12-07T07:38:02;3.80;;;1.67;;
14139;SDS011;7150;53.514;9.988;2022-12-07T07:40:28;3.50;;;1.80;;
14139;SDS011;7150;53.514;9.988;2022-12-07T07:42:54;3.00;;;1.33;;
14139;SDS011;7150;53.514;9.988;2022-12-07T07:45:21;4.47;;;1.87;;
14139;SDS011;7150;53.514;9.988;2022-12-07T07:47:47;2.60;;;1.37;;
14139;SDS011;7150;53.514;9.988;2022-12-07T07:50:13;2.53;;;1.40;;
14139;SDS011;7150;53.514;9.988;2022-12-07T07:52:40;2.60;;;1.40;;
14139;SDS011;7150;53.514;9.988;2022-12-07T07:55:06;2.53;;;1.50;;
14139;SDS011;7150;53.514;9.988;2022-12-07T07:57:33;5.40;;;1.60;;
14139;SDS011;7150;53.514;9.988;2022-12-07T08:00:00;3.80;;;1.73;;
14139;SDS011;7150;53.514;9.988;2022-12-07T08:02:26;2.03;;;1.50;;
14139;SDS011;7150;53.514;9.988;2022-12-07T08:04:54;1.70;;;1.20;;
14139;SDS011;7150;53.514;9.988;2022-12-07T08:07:20;3.30;;;1.20;;
14139;SDS011;7150;53.514;9.988;2022-12-07T08:09:45;6.00;;;1.60;;
14139;SDS011;7150;53.514;9.988;2022-12-07T08:12:11;5.13;;;1.40;;
14139;SDS011;7150;53.514;9.988;2022-12-07T08:14:36;3.67;;;1.60;;
14139;SDS011;7150;53.514;9.988;2022-12-07T08:17:05;3.37;;;1.60;;
14139;SDS011;7150;53.514;9.988;2022-12-07T08:19:33;2.97;;;1.80;;
14139;SDS011;7150;53.514;9.988;2022-12-07T08:21:59;5.20;;;2.10;;
14139;SDS011;7150;53.514;9.988;2022-12-07T08:24:25;5.90;;;1.90;;
14139;SDS011;7150;53.514;9.988;2022-12-07T08:26:50;7.77;;;2.10;;
14139;SDS011;7150;53.514;9.988;2022-12-07T08:29:16;4.93;;;1.80;;
14139;SDS011;7150;53.514;9.988;2022-12-07T08:31:42;4.03;;;1.37;;
14139;SDS011;7150;53.514;9.988;2022-12-07T08:34:07;4.73;;;2.00;;
14139;SDS011;7150;53.514;9.988;2022-12-07T08:36:36;10.10;;;2.70;;
14139;SDS011;7150;53.514;9.988;2022-12-07T08:39:02;4.40;;;1.77;;
14139;SDS011;7150;53.514;9.988;2022-12-07T08:41:27;5.87;;;1.73;;
14139;SDS011;7150;53.514;9.988;2022-12-07T08:43:53;3.10;;;1.50;;
14139;SDS011;7150;53.514;9.988;2022-12-07T08:46:20;7.03;;;1.77;;
14139;SDS011;7150;53.514;9.988;2022-12-07T08:48:51;4.13;;;1.90;;
14139;SDS011;7150;53.514;9.988;2022-12-07T08:51:22;1.40;;;1.23;;
14139;SDS011;7150;53.514;9.988;2022-12-07T08:53:49;3.73;;;2.07;;
14139;SDS011;7150;53.514;9.988;2022-12-07T08:56:15;4.77;;;1.93;;
14139;SDS011;7150;53.514;9.988;2022-12-07T08:58:41;2.33;;;1.27;;
14139;SDS011;7150;53.514;9.988;2022-12-07T09:01:08;3.53;;;1.50;;
14139;SDS011;7150;53.514;9.988;2022-12-07T09:03:33;4.10;;;2.00;;
14139;SDS011;7150;53.514;9.988;2022-12-07T09:05:59;5.53;;;1.90;;
14139;SDS011;7150;53.514;9.988;2022-12-07T09:08:26;4.27;;;1.57;;
14139;SDS011;7150;53.514;9.988;2022-12-07T09:10:56;7.57;;;1.87;;
14139;SDS011;7150;53.514;9.988;2022-12-07T09:13:21;5.87;;;1.90;;
14139;SDS011;7150;53.514;9.988;2022-12-07T09:15:47;14.40;;;1.60;;
14139;SDS011;7150;53.514;9.988;2022-12-07T09:18:13;4.57;;;1.53;;
14139;SDS011;7150;53.514;9.988;2022-12-07T09:20:38;2.57;;;1.60;;
14139;SDS011;7150;53.514;9.988;2022-12-07T09:23:05;3.33;;;1.47;;
14139;SDS011;7150;53.514;9.988;2022-12-07T09:25:32;6.70;;;2.03;;
14139;SDS011;7150;53.514;9.988;2022-12-07T09:27:58;5.30;;;2.03;;
14139;SDS011;7150;53.514;9.988;2022-12-07T09:30:24;6.03;;;1.77;;
14139;SDS011;7150;53.514;9.988;2022-12-07T09:32:52;6.90;;;2.00;;
14139;SDS011;7150;53.514;9.988;2022-12-07T09:35:19;5.33;;;1.60;;
14139;SDS011;7150;53.514;9.988;2022-12-07T09:37:45;3.63;;;1.60;;
14139;SDS011;7150;53.514;9.988;2022-12-07T09:40:10;4.87;;;2.10;;
14139;SDS011;7150;53.514;9.988;2022-12-07T09:42:37;8.53;;;2.00;;
14139;SDS011;7150;53.514;9.988;2022-12-07T09:45:05;4.23;;;1.80;;
14139;SDS011;7150;53.514;9.988;2022-12-07T09:47:42;6.23;;;1.87;;
14139;SDS011;7150;53.514;9.988;2022-12-07T09:50:13;9.07;;;2.37;;
14139;SDS011;7150;53.514;9.988;2022-12-07T09:52:42;6.07;;;1.73;;
14139;SDS011;7150;53.514;9.988;2022-12-07T09:55:14;5.83;;;1.90;;
14139;SDS011;7150;53.514;9.988;2022-12-07T09:57:41;3.23;;;1.70;;
14139;SDS011;7150;53.514;9.988;2022-12-07T10:00:15;3.27;;;1.20;;
14139;SDS011;7150;53.514;9.988;2022-12-07T10:02:43;3.97;;;1.47;;
14139;SDS011;7150;53.514;9.988;2022-12-07T10:05:13;8.80;;;1.50;;
14139;SDS011;7150;53.514;9.988;2022-12-07T10:07:41;4.67;;;1.07;;
14139;SDS011;7150;53.514;9.988;2022-12-07T10:10:13;3.10;;;1.30;;
14139;SDS011;7150;53.514;9.988;2022-12-07T10:15:46;4.63;;;1.07;;
14139;SDS011;7150;53.514;9.988;2022-12-07T10:18:33;3.10;;;1.10;;
14139;SDS011;7150;53.514;9.988;2022-12-07T10:21:13;4.57;;;0.97;;
14139;SDS011;7150;53.514;9.988;2022-12-07T10:23:59;4.67;;;1.30;;
14139;SDS011;7150;53.514;9.988;2022-12-07T10:31:44;3.23;;;1.43;;
14139;SDS011;7150;53.514;9.988;2022-12-07T10:34:24;5.07;;;1.00;;
14139;SDS011;7150;53.514;9.988;2022-12-07T10:36:51;3.93;;;1.13;;
14139;SDS011;7150;53.514;9.988;2022-12-07T10:39:18;3.40;;;1.00;;
14139;SDS011;7150;53.514;9.988;2022-12-07T10:42:01;3.53;;;1.20;;
14139;SDS011;7150;53.514;9.988;2022-12-07T10:44:29;4.63;;;1.33;;
14139;SDS011;7150;53.514;9.988;2022-12-07T10:46:59;9.57;;;1.10;;
14139;SDS011;7150;53.514;9.988;2022-12-07T10:49:34;4.50;;;1.07;;
14139;SDS011;7150;53.514;9.988;2022-12-07T10:52:18;1.80;;;0.90;;
14139;SDS011;7150;53.514;9.988;2022-12-07T10:54:57;2.53;;;1.20;;
14139;SDS011;7150;53.514;9.988;2022-12-07T10:57:38;5.07;;;1.37;;
14139;SDS011;7150;53.514;9.988;2022-12-07T11:00:09;3.90;;;1.43;;
14139;SDS011;7150;53.514;9.988;2022-12-07T11:02:59;5.23;;;1.10;;
14139;SDS011;7150;53.514;9.988;2022-12-07T11:05:52;3.20;;;1.30;;
14139;SDS011;7150;53.514;9.988;2022-12-07T11:11:14;6.93;;;1.63;;
14139;SDS011;7150;53.514;9.988;2022-12-07T11:16:28;5.83;;;1.60;;
14139;SDS011;7150;53.514;9.988;2022-12-07T11:19:18;2.03;;;0.90;;
14139;SDS011;7150;53.514;9.988;2022-12-07T11:21:48;2.33;;;0.93;;
14139;SDS011;7150;53.514;9.988;2022-12-07T11:24:24;4.93;;;1.30;;
14139;SDS011;7150;53.514;9.988;2022-12-07T11:32:49;5.07;;;1.33;;
14139;SDS011;7150;53.514;9.988;2022-12-07T11:38:33;4.63;;;0.97;;
14139;SDS011;7150;53.514;9.988;2022-12-07T11:41:12;7.00;;;1.40;;
14139;SDS011;7150;53.514;9.988;2022-12-07T11:43:42;7.60;;;1.70;;
14139;SDS011;7150;53.514;9.988;2022-12-07T11:46:39;5.03;;;1.60;;
14139;SDS011;7150;53.514;9.988;2022-12-07T11:49:12;6.53;;;1.40;;
14139;SDS011;7150;53.514;9.988;2022-12-07T11:51:57;6.37;;;1.27;;
14139;SDS011;7150;53.514;9.988;2022-12-07T11:54:27;7.10;;;1.83;;
14139;SDS011;7150;53.514;9.988;2022-12-07T11:56:56;4.23;;;1.33;;
14139;SDS011;7150;53.514;9.988;2022-12-07T11:59:38;7.07;;;1.77;;
14139;SDS011;7150;53.514;9.988;2022-12-07T12:02:16;8.90;;;1.50;;
14139;SDS011;7150;53.514;9.988;2022-12-07T12:04:58;12.27;;;1.50;;
14139;SDS011;7150;53.514;9.988;2022-12-07T12:07:44;9.67;;;2.20;;
14139;SDS011;7150;53.514;9.988;2022-12-07T12:10:15;5.50;;;1.50;;
14139;SDS011;7150;53.514;9.988;2022-12-07T12:13:11;3.07;;;1.30;;
14139;SDS011;7150;53.514;9.988;2022-12-07T12:18:56;5.63;;;1.47;;
14139;SDS011;7150;53.514;9.988;2022-12-07T12:21:48;4.50;;;1.40;;
14139;SDS011;7150;53.514;9.988;2022-12-07T12:24:19;8.73;;;1.80;;
14139;SDS011;7150;53.514;9.988;2022-12-07T12:26:51;2.33;;;1.40;;
14139;SDS011;7150;53.514;9.988;2022-12-07T12:29:24;3.63;;;1.50;;
14139;SDS011;7150;53.514;9.988;2022-12-07T12:32:12;5.37;;;2.33;;
14139;SDS011;7150;53.514;9.988;2022-12-07T12:34:58;5.17;;;1.50;;
14139;SDS011;7150;53.514;9.988;2022-12-07T12:42:46;3.97;;;1.53;;
14139;SDS011;7150;53.514;9.988;2022-12-07T12:45:17;5.60;;;2.07;;
14139;SDS011;7150;53.514;9.988;2022-12-07T12:47:59;6.53;;;1.60;;
14139;SDS011;7150;53.514;9.988;2022-12-07T12:50:33;9.53;;;2.33;;
14139;SDS011;7150;53.514;9.988;2022-12-07T12:55:50;6.83;;;1.37;;
14139;SDS011;7150;53.514;9.988;2022-12-07T12:58:35;10.17;;;1.53;;
14139;SDS011;7150;53.514;9.988;2022-12-07T13:06:50;9.30;;;1.63;;
14139;SDS011;7150;53.514;9.988;2022-12-07T13:09:28;7.03;;;1.70;;
14139;SDS011;7150;53.514;9.988;2022-12-07T13:12:00;7.67;;;1.90;;
14139;SDS011;7150;53.514;9.988;2022-12-07T13:20:03;8.67;;;1.50;;
14139;SDS011;7150;53.514;9.988;2022-12-07T13:24:57;5.90;;;1.27;;
14139;SDS011;7150;53.514;9.988;2022-12-07T13:27:30;8.03;;;1.93;;
14139;SDS011;7150;53.514;9.988;2022-12-07T13:29:56;5.03;;;1.60;;
14139;SDS011;7150;53.514;9.988;2022-12-07T13:32:28;7.50;;;1.83;;
14139;SDS011;7150;53.514;9.988;2022-12-07T13:34:55;8.63;;;1.80;;
14139;SDS011;7150;53.514;9.988;2022-12-07T13:39:52;3.93;;;1.50;;
14139;SDS011;7150;53.514;9.988;2022-12-07T13:42:30;6.33;;;1.53;;
14139;SDS011;7150;53.514;9.988;2022-12-07T13:44:57;5.50;;;1.13;;
14139;SDS011;7150;53.514;9.988;2022-12-07T13:47:31;7.77;;;1.53;;
14139;SDS011;7150;53.514;9.988;2022-12-07T13:50:21;7.07;;;1.40;;
14139;SDS011;7150;53.514;9.988;2022-12-07T13:52:54;6.43;;;1.50;;
14139;SDS011;7150;53.514;9.988;2022-12-07T13:55:21;5.07;;;1.33;;
14139;SDS011;7150;53.514;9.988;2022-12-07T13:57:47;4.17;;;1.63;;
14139;SDS011;7150;53.514;9.988;2022-12-07T14:00:16;7.10;;;1.70;;
14139;SDS011;7150;53.514;9.988;2022-12-07T14:05:33;3.47;;;1.47;;
14139;SDS011;7150;53.514;9.988;2022-12-07T14:10:36;9.13;;;1.33;;
14139;SDS011;7150;53.514;9.988;2022-12-07T14:13:02;3.53;;;1.83;;
14139;SDS011;7150;53.514;9.988;2022-12-07T14:15:49;5.00;;;1.77;;
14139;SDS011;7150;53.514;9.988;2022-12-07T14:18:26;3.43;;;1.43;;
14139;SDS011;7150;53.514;9.988;2022-12-07T14:21:06;2.80;;;1.37;;
14139;SDS011;7150;53.514;9.988;2022-12-07T14:23:43;3.13;;;1.53;;
14139;SDS011;7150;53.514;9.988;2022-12-07T14:26:14;5.53;;;2.40;;
14139;SDS011;7150;53.514;9.988;2022-12-07T14:28:43;7.20;;;2.50;;
14139;SDS011;7150;53.514;9.988;2022-12-07T14:31:13;5.60;;;2.07;;
14139;SDS011;7150;53.514;9.988;2022-12-07T14:33:41;6.57;;;1.90;;
14139;SDS011;7150;53.514;9.988;2022-12-07T14:36:13;6.53;;;1.40;;
14139;SDS011;7150;53.514;9.988;2022-12-07T14:38:40;5.33;;;1.23;;
14139;SDS011;7150;53.514;9.988;2022-12-07T14:41:06;4.30;;;1.20;;
14139;SDS011;7150;53.514;9.988;2022-12-07T14:43:58;2.60;;;1.07;;
14139;SDS011;7150;53.514;9.988;2022-12-07T14:46:23;2.20;;;1.23;;
14139;SDS011;7150;53.514;9.988;2022-12-07T14:48:49;2.97;;;1.20;;
14139;SDS011;7150;53.514;9.988;2022-12-07T14:51:15;3.10;;;1.37;;
14139;SDS011;7150;53.514;9.988;2022-12-07T14:53:44;3.83;;;1.07;;
14139;SDS011;7150;53.514;9.988;2022-12-07T14:56:13;3.60;;;1.23;;
14139;SDS011;7150;53.514;9.988;2022-12-07T14:58:39;4.73;;;1.10;;
14139;SDS011;7150;53.514;9.988;2022-12-07T15:01:05;4.63;;;1.17;;
14139;SDS011;7150;53.514;9.988;2022-12-07T15:03:30;4.80;;;1.33;;
14139;SDS011;7150;53.514;9.988;2022-12-07T15:05:56;1.80;;;1.03;;
14139;SDS011;7150;53.514;9.988;2022-12-07T15:08:22;3.93;;;1.40;;
14139;SDS011;7150;53.514;9.988;2022-12-07T15:10:47;9.67;;;1.93;;
14139;SDS011;7150;53.514;9.988;2022-12-07T15:13:13;7.10;;;1.67;;
14139;SDS011;7150;53.514;9.988;2022-12-07T15:15:57;4.57;;;1.43;;
14139;SDS011;7150;53.514;9.988;2022-12-07T15:18:23;6.23;;;1.30;;
14139;SDS011;7150;53.514;9.988;2022-12-07T15:20:49;2.83;;;1.53;;
14139;SDS011;7150;53.514;9.988;2022-12-07T15:23:15;2.67;;;1.30;;
14139;SDS011;7150;53.514;9.988;2022-12-07T15:25:41;5.53;;;1.57;;
14139;SDS011;7150;53.514;9.988;2022-12-07T15:28:07;2.57;;;1.40;;
14139;SDS011;7150;53.514;9.988;2022-12-07T15:30:33;2.83;;;1.40;;
14139;SDS011;7150;53.514;9.988;2022-12-07T15:32:59;3.73;;;1.57;;
14139;SDS011;7150;53.514;9.988;2022-12-07T15:35:25;3.57;;;1.53;;
14139;SDS011;7150;53.514;9.988;2022-12-07T15:37:50;9.10;;;1.53;;
14139;SDS011;7150;53.514;9.988;2022-12-07T15:40:16;3.40;;;1.40;;
14139;SDS011;7150;53.514;9.988;2022-12-07T15:42:41;6.37;;;1.50;;
14139;SDS011;7150;53.514;9.988;2022-12-07T15:45:07;4.50;;;1.40;;
14139;SDS011;7150;53.514;9.988;2022-12-07T15:47:38;5.47;;;1.30;;
14139;SDS011;7150;53.514;9.988;2022-12-07T15:50:05;2.83;;;1.03;;
14139;SDS011;7150;53.514;9.988;2022-12-07T15:52:33;1.80;;;1.13;;
14139;SDS011;7150;53.514;9.988;2022-12-07T15:54:59;3.20;;;1.50;;
14139;SDS011;7150;53.514;9.988;2022-12-07T15:57:25;6.77;;;1.20;;
14139;SDS011;7150;53.514;9.988;2022-12-07T15:59:51;8.17;;;1.20;;
14139;SDS011;7150;53.514;9.988;2022-12-07T16:02:17;3.80;;;1.40;;
14139;SDS011;7150;53.514;9.988;2022-12-07T16:04:42;2.63;;;1.20;;
14139;SDS011;7150;53.514;9.988;2022-12-07T16:07:09;5.07;;;1.50;;
14139;SDS011;7150;53.514;9.988;2022-12-07T16:09:36;2.77;;;1.10;;
14139;SDS011;7150;53.514;9.988;2022-12-07T16:12:02;3.03;;;0.90;;
14139;SDS011;7150;53.514;9.988;2022-12-07T16:14:28;3.73;;;1.30;;
14139;SDS011;7150;53.514;9.988;2022-12-07T16:16:54;4.43;;;1.23;;
14139;SDS011;7150;53.514;9.988;2022-12-07T16:19:19;3.17;;;1.20;;
14139;SDS011;7150;53.514;9.988;2022-12-07T16:21:45;8.53;;;1.63;;
14139;SDS011;7150;53.514;9.988;2022-12-07T16:24:11;4.87;;;1.37;;
14139;SDS011;7150;53.514;9.988;2022-12-07T16:26:39;3.27;;;1.30;;
14139;SDS011;7150;53.514;9.988;2022-12-07T16:29:05;2.67;;;1.30;;
14139;SDS011;7150;53.514;9.988;2022-12-07T16:31:31;4.00;;;1.20;;
14139;SDS011;7150;53.514;9.988;2022-12-07T16:33:57;2.20;;;1.17;;
14139;SDS011;7150;53.514;9.988;2022-12-07T16:36:23;6.23;;;1.60;;